sensor_id;sensor_type;location;lat;lon;timestamp;P1;durP1;ratioP1;P2;durP2;ratioP2
77214;SDS011;66210;53.282;9.864;2024-03-17T00:01:00;6.13;;;2.00;;
77214;SDS011;66210;53.282;9.864;2024-03-17T00:03:26;13.80;;;2.90;;
77214;SDS011;66210;53.282;9.864;2024-03-17T00:05:58;11.13;;;2.05;;
77214;SDS011;66210;53.282;9.864;2024-03-17T00:08:25;15.48;;;2.42;;
77214;SDS011;66210;53.282;9.864;2024-03-17T00:10:51;9.23;;;2.08;;
77214;SDS011;66210;53.282;9.864;2024-03-17T00:13:17;12.63;;;2.03;;
77214;SDS011;66210;53.282;9.864;2024-03-17T00:15:43;5.28;;;1.48;;
77214;SDS011;66210;53.282;9.864;2024-03-17T00:18:09;11.07;;;2.40;;
77214;SDS011;66210;53.282;9.864;2024-03-17T00:20:38;8.77;;;1.90;;
77214;SDS011;66210;53.282;9.864;2024-03-17T00:23:04;16.10;;;2.50;;
77214;SDS011;66210;53.282;9.864;2024-03-17T00:25:35;12.35;;;2.17;;
77214;SDS011;66210;53.282;9.864;2024-03-17T00:28:01;13.50;;;2.50;;
77214;SDS011;66210;53.282;9.864;2024-03-17T00:30:27;10.23;;;2.15;;
77214;SDS011;66210;53.282;9.864;2024-03-17T00:32:53;10.15;;;2.50;;
77214;SDS011;66210;53.282;9.864;2024-03-17T00:35:19;11.43;;;2.20;;
77214;SDS011;66210;53.282;9.864;2024-03-17T00:37:47;10.32;;;2.13;;
77214;SDS011;66210;53.282;9.864;2024-03-17T00:40:14;8.82;;;2.00;;
77214;SDS011;66210;53.282;9.864;2024-03-17T00:42:42;17.50;;;2.30;;
77214;SDS011;66210;53.282;9.864;2024-03-17T00:45:08;12.15;;;2.05;;
77214;SDS011;66210;53.282;9.864;2024-03-17T00:47:35;11.70;;;2.00;;
77214;SDS011;66210;53.282;9.864;2024-03-17T00:50:01;9.05;;;2.05;;
77214;SDS011;66210;53.282;9.864;2024-03-17T00:52:29;9.55;;;2.10;;
77214;SDS011;66210;53.282;9.864;2024-03-17T00:54:55;13.23;;;2.22;;
77214;SDS011;66210;53.282;9.864;2024-03-17T00:57:20;11.93;;;2.20;;
77214;SDS011;66210;53.282;9.864;2024-03-17T00:59:46;5.60;;;1.77;;
77214;SDS011;66210;53.282;9.864;2024-03-17T01:02:12;8.90;;;1.83;;
77214;SDS011;66210;53.282;9.864;2024-03-17T01:04:40;7.10;;;1.63;;
77214;SDS011;66210;53.282;9.864;2024-03-17T01:07:06;8.77;;;2.58;;
77214;SDS011;66210;53.282;9.864;2024-03-17T01:09:31;13.50;;;2.50;;
77214;SDS011;66210;53.282;9.864;2024-03-17T01:11:57;9.80;;;2.03;;
77214;SDS011;66210;53.282;9.864;2024-03-17T01:14:23;10.50;;;2.33;;
77214;SDS011;66210;53.282;9.864;2024-03-17T01:16:50;13.05;;;2.30;;
77214;SDS011;66210;53.282;9.864;2024-03-17T01:19:16;5.28;;;1.60;;
77214;SDS011;66210;53.282;9.864;2024-03-17T01:21:42;7.55;;;2.50;;
77214;SDS011;66210;53.282;9.864;2024-03-17T01:24:08;12.75;;;2.10;;
77214;SDS011;66210;53.282;9.864;2024-03-17T01:26:34;7.45;;;1.92;;
77214;SDS011;66210;53.282;9.864;2024-03-17T01:28:59;14.77;;;2.42;;
77214;SDS011;66210;53.282;9.864;2024-03-17T01:31:25;11.68;;;1.98;;
77214;SDS011;66210;53.282;9.864;2024-03-17T01:33:51;7.53;;;1.52;;
77214;SDS011;66210;53.282;9.864;2024-03-17T01:36:16;10.02;;;2.13;;
77214;SDS011;66210;53.282;9.864;2024-03-17T01:38:42;15.55;;;1.95;;
77214;SDS011;66210;53.282;9.864;2024-03-17T01:41:08;14.30;;;1.98;;
77214;SDS011;66210;53.282;9.864;2024-03-17T01:43:36;8.45;;;2.15;;
77214;SDS011;66210;53.282;9.864;2024-03-17T01:46:01;9.18;;;1.95;;
77214;SDS011;66210;53.282;9.864;2024-03-17T01:48:28;6.65;;;1.75;;
77214;SDS011;66210;53.282;9.864;2024-03-17T01:50:55;8.32;;;2.00;;
77214;SDS011;66210;53.282;9.864;2024-03-17T01:53:21;9.52;;;2.17;;
77214;SDS011;66210;53.282;9.864;2024-03-17T01:55:50;8.18;;;1.85;;
77214;SDS011;66210;53.282;9.864;2024-03-17T01:58:19;11.25;;;2.10;;
77214;SDS011;66210;53.282;9.864;2024-03-17T02:00:45;7.82;;;2.15;;
77214;SDS011;66210;53.282;9.864;2024-03-17T02:03:11;9.27;;;2.00;;
77214;SDS011;66210;53.282;9.864;2024-03-17T02:05:38;12.23;;;2.25;;
77214;SDS011;66210;53.282;9.864;2024-03-17T02:08:04;9.63;;;1.88;;
77214;SDS011;66210;53.282;9.864;2024-03-17T02:10:32;7.45;;;2.03;;
77214;SDS011;66210;53.282;9.864;2024-03-17T02:12:58;8.23;;;2.42;;
77214;SDS011;66210;53.282;9.864;2024-03-17T02:15:25;9.82;;;1.77;;
77214;SDS011;66210;53.282;9.864;2024-03-17T02:17:51;5.88;;;1.58;;
77214;SDS011;66210;53.282;9.864;2024-03-17T02:20:17;5.63;;;1.55;;
77214;SDS011;66210;53.282;9.864;2024-03-17T02:22:43;5.53;;;1.60;;
77214;SDS011;66210;53.282;9.864;2024-03-17T02:25:09;6.20;;;1.30;;
77214;SDS011;66210;53.282;9.864;2024-03-17T02:27:35;8.88;;;2.28;;
77214;SDS011;66210;53.282;9.864;2024-03-17T02:30:01;13.32;;;1.67;;
77214;SDS011;66210;53.282;9.864;2024-03-17T02:32:37;11.02;;;2.22;;
77214;SDS011;66210;53.282;9.864;2024-03-17T02:35:03;8.15;;;1.60;;
77214;SDS011;66210;53.282;9.864;2024-03-17T02:37:30;6.45;;;1.67;;
77214;SDS011;66210;53.282;9.864;2024-03-17T02:39:56;10.70;;;1.98;;
77214;SDS011;66210;53.282;9.864;2024-03-17T02:42:22;9.93;;;1.65;;
77214;SDS011;66210;53.282;9.864;2024-03-17T02:44:47;14.32;;;2.28;;
77214;SDS011;66210;53.282;9.864;2024-03-17T02:47:13;6.40;;;1.83;;
77214;SDS011;66210;53.282;9.864;2024-03-17T02:49:40;11.38;;;1.67;;
77214;SDS011;66210;53.282;9.864;2024-03-17T02:52:08;8.02;;;2.58;;
77214;SDS011;66210;53.282;9.864;2024-03-17T02:54:35;8.52;;;2.28;;
77214;SDS011;66210;53.282;9.864;2024-03-17T02:57:02;6.70;;;1.77;;
77214;SDS011;66210;53.282;9.864;2024-03-17T02:59:28;7.35;;;2.22;;
77214;SDS011;66210;53.282;9.864;2024-03-17T03:01:54;9.45;;;2.03;;
77214;SDS011;66210;53.282;9.864;2024-03-17T03:04:20;13.40;;;2.10;;
77214;SDS011;66210;53.282;9.864;2024-03-17T03:06:46;10.07;;;1.95;;
77214;SDS011;66210;53.282;9.864;2024-03-17T03:09:11;10.77;;;2.28;;
77214;SDS011;66210;53.282;9.864;2024-03-17T03:11:46;7.18;;;2.00;;
77214;SDS011;66210;53.282;9.864;2024-03-17T03:14:12;7.53;;;2.00;;
77214;SDS011;66210;53.282;9.864;2024-03-17T03:16:38;6.95;;;1.88;;
77214;SDS011;66210;53.282;9.864;2024-03-17T03:19:04;10.55;;;2.55;;
77214;SDS011;66210;53.282;9.864;2024-03-17T03:21:30;9.75;;;2.45;;
77214;SDS011;66210;53.282;9.864;2024-03-17T03:23:56;9.50;;;2.20;;
77214;SDS011;66210;53.282;9.864;2024-03-17T03:26:22;10.05;;;2.50;;
77214;SDS011;66210;53.282;9.864;2024-03-17T03:28:48;10.23;;;2.15;;
77214;SDS011;66210;53.282;9.864;2024-03-17T03:31:15;15.23;;;2.20;;
77214;SDS011;66210;53.282;9.864;2024-03-17T03:33:41;4.38;;;1.90;;
77214;SDS011;66210;53.282;9.864;2024-03-17T03:36:16;11.10;;;1.77;;
77214;SDS011;66210;53.282;9.864;2024-03-17T03:38:44;10.82;;;2.15;;
77214;SDS011;66210;53.282;9.864;2024-03-17T03:41:10;11.10;;;2.08;;
77214;SDS011;66210;53.282;9.864;2024-03-17T03:43:39;6.28;;;2.05;;
77214;SDS011;66210;53.282;9.864;2024-03-17T03:46:07;7.95;;;1.92;;
77214;SDS011;66210;53.282;9.864;2024-03-17T03:48:33;7.63;;;2.03;;
77214;SDS011;66210;53.282;9.864;2024-03-17T03:51:06;11.95;;;2.05;;
77214;SDS011;66210;53.282;9.864;2024-03-17T03:53:33;13.38;;;2.10;;
77214;SDS011;66210;53.282;9.864;2024-03-17T03:55:59;13.05;;;2.03;;
77214;SDS011;66210;53.282;9.864;2024-03-17T03:58:29;7.07;;;1.88;;
77214;SDS011;66210;53.282;9.864;2024-03-17T04:00:55;11.52;;;2.20;;
77214;SDS011;66210;53.282;9.864;2024-03-17T04:03:21;10.38;;;1.98;;
77214;SDS011;66210;53.282;9.864;2024-03-17T04:05:47;7.85;;;1.92;;
77214;SDS011;66210;53.282;9.864;2024-03-17T04:08:13;5.80;;;2.03;;
77214;SDS011;66210;53.282;9.864;2024-03-17T04:10:39;6.45;;;1.77;;
77214;SDS011;66210;53.282;9.864;2024-03-17T04:13:05;9.48;;;2.13;;
77214;SDS011;66210;53.282;9.864;2024-03-17T04:15:30;12.48;;;2.20;;
77214;SDS011;66210;53.282;9.864;2024-03-17T04:17:56;7.20;;;1.98;;
77214;SDS011;66210;53.282;9.864;2024-03-17T04:20:22;6.45;;;2.00;;
77214;SDS011;66210;53.282;9.864;2024-03-17T04:22:47;8.80;;;2.50;;
77214;SDS011;66210;53.282;9.864;2024-03-17T04:25:13;8.75;;;1.95;;
77214;SDS011;66210;53.282;9.864;2024-03-17T04:27:40;5.55;;;1.77;;
77214;SDS011;66210;53.282;9.864;2024-03-17T04:30:06;10.27;;;2.70;;
77214;SDS011;66210;53.282;9.864;2024-03-17T04:32:32;7.68;;;2.10;;
77214;SDS011;66210;53.282;9.864;2024-03-17T04:34:58;6.00;;;2.17;;
77214;SDS011;66210;53.282;9.864;2024-03-17T04:37:24;11.25;;;2.92;;
77214;SDS011;66210;53.282;9.864;2024-03-17T04:39:50;10.98;;;2.20;;
77214;SDS011;66210;53.282;9.864;2024-03-17T04:42:16;10.55;;;2.72;;
77214;SDS011;66210;53.282;9.864;2024-03-17T04:44:44;12.50;;;3.17;;
77214;SDS011;66210;53.282;9.864;2024-03-17T04:47:10;17.90;;;2.78;;
77214;SDS011;66210;53.282;9.864;2024-03-17T04:52:03;17.67;;;3.13;;
77214;SDS011;66210;53.282;9.864;2024-03-17T04:54:30;16.38;;;2.85;;
77214;SDS011;66210;53.282;9.864;2024-03-17T04:56:57;15.57;;;2.78;;
77214;SDS011;66210;53.282;9.864;2024-03-17T04:59:23;8.50;;;2.10;;
77214;SDS011;66210;53.282;9.864;2024-03-17T05:01:49;24.23;;;2.72;;
77214;SDS011;66210;53.282;9.864;2024-03-17T05:04:15;9.00;;;2.30;;
77214;SDS011;66210;53.282;9.864;2024-03-17T05:06:41;25.98;;;3.33;;
77214;SDS011;66210;53.282;9.864;2024-03-17T05:09:12;8.35;;;2.70;;
77214;SDS011;66210;53.282;9.864;2024-03-17T05:11:40;18.45;;;2.88;;
77214;SDS011;66210;53.282;9.864;2024-03-17T05:14:07;19.85;;;3.25;;
77214;SDS011;66210;53.282;9.864;2024-03-17T05:16:33;11.98;;;2.50;;
77214;SDS011;66210;53.282;9.864;2024-03-17T05:18:59;17.33;;;3.45;;
77214;SDS011;66210;53.282;9.864;2024-03-17T05:21:24;11.30;;;3.20;;
77214;SDS011;66210;53.282;9.864;2024-03-17T05:23:51;14.30;;;3.38;;
77214;SDS011;66210;53.282;9.864;2024-03-17T05:26:17;10.45;;;2.85;;
77214;SDS011;66210;53.282;9.864;2024-03-17T05:28:43;10.93;;;2.70;;
77214;SDS011;66210;53.282;9.864;2024-03-17T05:31:09;14.07;;;4.25;;
77214;SDS011;66210;53.282;9.864;2024-03-17T05:33:35;8.00;;;2.75;;
77214;SDS011;66210;53.282;9.864;2024-03-17T05:36:01;6.15;;;2.38;;
77214;SDS011;66210;53.282;9.864;2024-03-17T05:38:29;10.27;;;2.65;;
77214;SDS011;66210;53.282;9.864;2024-03-17T05:40:59;5.53;;;2.53;;
77214;SDS011;66210;53.282;9.864;2024-03-17T05:43:27;11.25;;;2.72;;
77214;SDS011;66210;53.282;9.864;2024-03-17T05:45:54;7.65;;;2.55;;
77214;SDS011;66210;53.282;9.864;2024-03-17T05:48:22;11.40;;;3.53;;
77214;SDS011;66210;53.282;9.864;2024-03-17T05:50:49;14.10;;;3.60;;
77214;SDS011;66210;53.282;9.864;2024-03-17T05:53:19;13.40;;;3.83;;
77214;SDS011;66210;53.282;9.864;2024-03-17T05:55:45;15.30;;;3.10;;
77214;SDS011;66210;53.282;9.864;2024-03-17T05:58:11;8.68;;;2.75;;
77214;SDS011;66210;53.282;9.864;2024-03-17T06:00:37;7.50;;;2.95;;
77214;SDS011;66210;53.282;9.864;2024-03-17T06:03:07;9.02;;;3.03;;
77214;SDS011;66210;53.282;9.864;2024-03-17T06:05:34;13.15;;;3.03;;
77214;SDS011;66210;53.282;9.864;2024-03-17T06:08:01;11.20;;;3.50;;
77214;SDS011;66210;53.282;9.864;2024-03-17T06:10:28;9.63;;;3.50;;
77214;SDS011;66210;53.282;9.864;2024-03-17T06:12:55;16.95;;;3.60;;
77214;SDS011;66210;53.282;9.864;2024-03-17T06:15:22;10.15;;;3.25;;
77214;SDS011;66210;53.282;9.864;2024-03-17T06:17:49;10.45;;;3.22;;
77214;SDS011;66210;53.282;9.864;2024-03-17T06:20:23;7.82;;;3.20;;
77214;SDS011;66210;53.282;9.864;2024-03-17T06:22:55;7.32;;;2.95;;
77214;SDS011;66210;53.282;9.864;2024-03-17T06:25:21;11.02;;;3.67;;
77214;SDS011;66210;53.282;9.864;2024-03-17T06:27:50;9.50;;;3.95;;
77214;SDS011;66210;53.282;9.864;2024-03-17T06:30:16;9.32;;;3.15;;
77214;SDS011;66210;53.282;9.864;2024-03-17T06:32:43;6.18;;;2.90;;
77214;SDS011;66210;53.282;9.864;2024-03-17T06:35:11;6.78;;;2.97;;
77214;SDS011;66210;53.282;9.864;2024-03-17T06:37:37;9.93;;;3.03;;
77214;SDS011;66210;53.282;9.864;2024-03-17T06:40:04;8.00;;;2.92;;
77214;SDS011;66210;53.282;9.864;2024-03-17T06:42:31;10.77;;;3.08;;
77214;SDS011;66210;53.282;9.864;2024-03-17T06:44:56;7.65;;;2.97;;
77214;SDS011;66210;53.282;9.864;2024-03-17T06:47:23;7.10;;;3.30;;
77214;SDS011;66210;53.282;9.864;2024-03-17T06:49:48;6.20;;;2.78;;
77214;SDS011;66210;53.282;9.864;2024-03-17T06:52:14;7.63;;;3.20;;
77214;SDS011;66210;53.282;9.864;2024-03-17T06:54:40;5.18;;;2.70;;
77214;SDS011;66210;53.282;9.864;2024-03-17T06:57:05;5.68;;;2.58;;
77214;SDS011;66210;53.282;9.864;2024-03-17T06:59:34;5.47;;;2.90;;
77214;SDS011;66210;53.282;9.864;2024-03-17T07:02:00;6.10;;;3.10;;
77214;SDS011;66210;53.282;9.864;2024-03-17T07:04:26;5.03;;;2.92;;
77214;SDS011;66210;53.282;9.864;2024-03-17T07:06:52;8.23;;;2.97;;
77214;SDS011;66210;53.282;9.864;2024-03-17T07:09:17;3.10;;;2.63;;
77214;SDS011;66210;53.282;9.864;2024-03-17T07:11:43;6.82;;;2.95;;
77214;SDS011;66210;53.282;9.864;2024-03-17T07:14:10;8.38;;;3.13;;
77214;SDS011;66210;53.282;9.864;2024-03-17T07:16:36;7.22;;;2.70;;
77214;SDS011;66210;53.282;9.864;2024-03-17T07:19:02;9.80;;;2.95;;
77214;SDS011;66210;53.282;9.864;2024-03-17T07:21:28;12.55;;;3.55;;
77214;SDS011;66210;53.282;9.864;2024-03-17T07:23:54;13.73;;;3.15;;
77214;SDS011;66210;53.282;9.864;2024-03-17T07:26:19;5.93;;;3.25;;
77214;SDS011;66210;53.282;9.864;2024-03-17T07:28:45;4.22;;;2.75;;
77214;SDS011;66210;53.282;9.864;2024-03-17T07:31:10;3.65;;;2.80;;
77214;SDS011;66210;53.282;9.864;2024-03-17T07:33:36;9.10;;;2.80;;
77214;SDS011;66210;53.282;9.864;2024-03-17T07:36:02;4.47;;;2.78;;
77214;SDS011;66210;53.282;9.864;2024-03-17T07:38:30;13.77;;;3.15;;
77214;SDS011;66210;53.282;9.864;2024-03-17T07:43:30;6.60;;;3.05;;
77214;SDS011;66210;53.282;9.864;2024-03-17T07:46:00;5.95;;;3.40;;
77214;SDS011;66210;53.282;9.864;2024-03-17T07:48:27;5.45;;;3.33;;
77214;SDS011;66210;53.282;9.864;2024-03-17T07:50:54;6.13;;;3.42;;
77214;SDS011;66210;53.282;9.864;2024-03-17T07:53:24;6.55;;;3.53;;
77214;SDS011;66210;53.282;9.864;2024-03-17T07:55:59;10.77;;;3.90;;
77214;SDS011;66210;53.282;9.864;2024-03-17T07:58:27;14.75;;;6.13;;
77214;SDS011;66210;53.282;9.864;2024-03-17T08:00:56;8.40;;;4.60;;
77214;SDS011;66210;53.282;9.864;2024-03-17T08:03:25;8.95;;;4.05;;
77214;SDS011;66210;53.282;9.864;2024-03-17T08:05:52;8.65;;;3.70;;
77214;SDS011;66210;53.282;9.864;2024-03-17T08:08:18;5.75;;;3.58;;
77214;SDS011;66210;53.282;9.864;2024-03-17T08:10:45;5.53;;;3.40;;
77214;SDS011;66210;53.282;9.864;2024-03-17T08:13:17;10.25;;;3.67;;
77214;SDS011;66210;53.282;9.864;2024-03-17T08:15:47;15.30;;;3.05;;
77214;SDS011;66210;53.282;9.864;2024-03-17T08:18:21;11.27;;;3.00;;
77214;SDS011;66210;53.282;9.864;2024-03-17T08:20:47;9.15;;;2.90;;
77214;SDS011;66210;53.282;9.864;2024-03-17T08:23:13;3.83;;;3.22;;
77214;SDS011;66210;53.282;9.864;2024-03-17T08:25:40;6.13;;;3.22;;
77214;SDS011;66210;53.282;9.864;2024-03-17T08:28:06;3.20;;;2.90;;
77214;SDS011;66210;53.282;9.864;2024-03-17T08:30:35;8.70;;;3.40;;
77214;SDS011;66210;53.282;9.864;2024-03-17T08:33:01;5.95;;;3.50;;
77214;SDS011;66210;53.282;9.864;2024-03-17T08:35:27;6.53;;;3.88;;
77214;SDS011;66210;53.282;9.864;2024-03-17T08:37:52;6.10;;;3.65;;
77214;SDS011;66210;53.282;9.864;2024-03-17T08:40:23;6.07;;;3.85;;
77214;SDS011;66210;53.282;9.864;2024-03-17T08:42:49;8.25;;;3.60;;
77214;SDS011;66210;53.282;9.864;2024-03-17T08:45:15;8.23;;;4.03;;
77214;SDS011;66210;53.282;9.864;2024-03-17T08:47:42;7.57;;;3.80;;
77214;SDS011;66210;53.282;9.864;2024-03-17T08:50:08;8.80;;;3.70;;
77214;SDS011;66210;53.282;9.864;2024-03-17T08:52:36;8.73;;;4.25;;
77214;SDS011;66210;53.282;9.864;2024-03-17T08:55:01;12.40;;;3.72;;
77214;SDS011;66210;53.282;9.864;2024-03-17T08:57:35;6.40;;;3.13;;
77214;SDS011;66210;53.282;9.864;2024-03-17T09:00:01;10.27;;;3.05;;
77214;SDS011;66210;53.282;9.864;2024-03-17T09:02:27;8.68;;;2.97;;
77214;SDS011;66210;53.282;9.864;2024-03-17T09:04:52;7.05;;;2.20;;
77214;SDS011;66210;53.282;9.864;2024-03-17T09:07:18;11.40;;;2.58;;
77214;SDS011;66210;53.282;9.864;2024-03-17T09:09:46;12.77;;;2.13;;
77214;SDS011;66210;53.282;9.864;2024-03-17T09:12:12;11.10;;;2.15;;
77214;SDS011;66210;53.282;9.864;2024-03-17T09:14:38;9.52;;;1.90;;
77214;SDS011;66210;53.282;9.864;2024-03-17T09:17:03;4.50;;;1.65;;
77214;SDS011;66210;53.282;9.864;2024-03-17T09:19:29;13.23;;;2.17;;
77214;SDS011;66210;53.282;9.864;2024-03-17T09:21:55;7.55;;;1.80;;
77214;SDS011;66210;53.282;9.864;2024-03-17T09:24:21;7.82;;;1.73;;
77214;SDS011;66210;53.282;9.864;2024-03-17T09:26:46;12.13;;;1.50;;
77214;SDS011;66210;53.282;9.864;2024-03-17T09:29:12;21.48;;;2.63;;
77214;SDS011;66210;53.282;9.864;2024-03-17T09:31:41;12.75;;;2.53;;
77214;SDS011;66210;53.282;9.864;2024-03-17T09:34:07;10.63;;;1.70;;
77214;SDS011;66210;53.282;9.864;2024-03-17T09:36:33;8.57;;;1.90;;
77214;SDS011;66210;53.282;9.864;2024-03-17T09:38:59;8.52;;;2.00;;
77214;SDS011;66210;53.282;9.864;2024-03-17T09:41:26;9.25;;;1.48;;
77214;SDS011;66210;53.282;9.864;2024-03-17T09:43:53;7.60;;;1.48;;
77214;SDS011;66210;53.282;9.864;2024-03-17T09:46:19;9.88;;;2.00;;
77214;SDS011;66210;53.282;9.864;2024-03-17T09:48:45;6.57;;;1.42;;
77214;SDS011;66210;53.282;9.864;2024-03-17T09:51:16;6.20;;;1.20;;
77214;SDS011;66210;53.282;9.864;2024-03-17T09:53:44;9.90;;;1.17;;
77214;SDS011;66210;53.282;9.864;2024-03-17T09:56:13;8.98;;;1.50;;
77214;SDS011;66210;53.282;9.864;2024-03-17T09:58:41;8.00;;;1.48;;
77214;SDS011;66210;53.282;9.864;2024-03-17T10:01:08;11.40;;;2.30;;
77214;SDS011;66210;53.282;9.864;2024-03-17T10:03:40;11.52;;;1.55;;
77214;SDS011;66210;53.282;9.864;2024-03-17T10:06:24;6.65;;;1.85;;
77214;SDS011;66210;53.282;9.864;2024-03-17T10:08:54;15.40;;;1.80;;
77214;SDS011;66210;53.282;9.864;2024-03-17T10:11:25;6.18;;;1.33;;
77214;SDS011;66210;53.282;9.864;2024-03-17T10:13:58;7.30;;;1.80;;
77214;SDS011;66210;53.282;9.864;2024-03-17T10:16:26;7.80;;;1.65;;
77214;SDS011;66210;53.282;9.864;2024-03-17T10:21:41;8.63;;;1.88;;
77214;SDS011;66210;53.282;9.864;2024-03-17T10:26:43;13.75;;;1.63;;
77214;SDS011;66210;53.282;9.864;2024-03-17T10:29:27;4.25;;;1.25;;
77214;SDS011;66210;53.282;9.864;2024-03-17T10:32:02;6.97;;;1.40;;
77214;SDS011;66210;53.282;9.864;2024-03-17T10:34:30;8.75;;;1.55;;
77214;SDS011;66210;53.282;9.864;2024-03-17T10:37:09;3.40;;;1.00;;
77214;SDS011;66210;53.282;9.864;2024-03-17T10:39:50;6.93;;;1.80;;
77214;SDS011;66210;53.282;9.864;2024-03-17T10:42:27;8.15;;;1.75;;
77214;SDS011;66210;53.282;9.864;2024-03-17T10:45:01;7.90;;;1.40;;
77214;SDS011;66210;53.282;9.864;2024-03-17T10:47:34;7.05;;;1.30;;
77214;SDS011;66210;53.282;9.864;2024-03-17T10:50:00;6.88;;;1.95;;
77214;SDS011;66210;53.282;9.864;2024-03-17T10:52:31;8.02;;;1.50;;
77214;SDS011;66210;53.282;9.864;2024-03-17T10:54:59;5.22;;;2.20;;
77214;SDS011;66210;53.282;9.864;2024-03-17T11:00:08;9.50;;;1.60;;
77214;SDS011;66210;53.282;9.864;2024-03-17T11:02:34;10.70;;;2.40;;
77214;SDS011;66210;53.282;9.864;2024-03-17T11:05:05;7.85;;;1.70;;
77214;SDS011;66210;53.282;9.864;2024-03-17T11:07:39;7.18;;;1.35;;
77214;SDS011;66210;53.282;9.864;2024-03-17T11:10:14;6.32;;;1.77;;
77214;SDS011;66210;53.282;9.864;2024-03-17T11:12:48;6.95;;;1.73;;
77214;SDS011;66210;53.282;9.864;2024-03-17T11:20:34;5.20;;;1.20;;
77214;SDS011;66210;53.282;9.864;2024-03-17T11:23:01;5.57;;;1.77;;
77214;SDS011;66210;53.282;9.864;2024-03-17T11:38:57;5.75;;;1.63;;
77214;SDS011;66210;53.282;9.864;2024-03-17T11:44:12;2.58;;;1.17;;
77214;SDS011;66210;53.282;9.864;2024-03-17T11:46:50;4.32;;;1.83;;
77214;SDS011;66210;53.282;9.864;2024-03-17T11:49:21;4.72;;;1.40;;
77214;SDS011;66210;53.282;9.864;2024-03-17T11:51:54;5.75;;;1.30;;
77214;SDS011;66210;53.282;9.864;2024-03-17T11:54:22;6.57;;;1.55;;
77214;SDS011;66210;53.282;9.864;2024-03-17T11:56:52;5.70;;;1.20;;
77214;SDS011;66210;53.282;9.864;2024-03-17T11:59:19;8.25;;;1.67;;
77214;SDS011;66210;53.282;9.864;2024-03-17T12:01:46;8.13;;;2.33;;
77214;SDS011;66210;53.282;9.864;2024-03-17T12:04:13;16.17;;;2.08;;
77214;SDS011;66210;53.282;9.864;2024-03-17T12:06:44;5.15;;;1.15;;
77214;SDS011;66210;53.282;9.864;2024-03-17T12:09:11;4.40;;;1.55;;
77214;SDS011;66210;53.282;9.864;2024-03-17T12:11:46;6.65;;;1.55;;
77214;SDS011;66210;53.282;9.864;2024-03-17T12:14:32;2.97;;;1.17;;
77214;SDS011;66210;53.282;9.864;2024-03-17T12:17:02;5.63;;;1.67;;
77214;SDS011;66210;53.282;9.864;2024-03-17T12:19:35;10.70;;;1.70;;
77214;SDS011;66210;53.282;9.864;2024-03-17T12:22:03;6.70;;;1.73;;
77214;SDS011;66210;53.282;9.864;2024-03-17T12:24:31;9.77;;;1.42;;
77214;SDS011;66210;53.282;9.864;2024-03-17T12:26:58;6.38;;;1.77;;
77214;SDS011;66210;53.282;9.864;2024-03-17T12:29:32;4.22;;;1.52;;
77214;SDS011;66210;53.282;9.864;2024-03-17T12:32:05;6.68;;;1.40;;
77214;SDS011;66210;53.282;9.864;2024-03-17T12:34:36;6.05;;;1.58;;
77214;SDS011;66210;53.282;9.864;2024-03-17T12:37:03;4.28;;;1.30;;
77214;SDS011;66210;53.282;9.864;2024-03-17T12:39:30;9.63;;;1.90;;
77214;SDS011;66210;53.282;9.864;2024-03-17T12:44:34;4.97;;;1.20;;
77214;SDS011;66210;53.282;9.864;2024-03-17T12:47:03;5.32;;;1.45;;
77214;SDS011;66210;53.282;9.864;2024-03-17T12:49:30;5.65;;;1.50;;
77214;SDS011;66210;53.282;9.864;2024-03-17T12:51:58;3.33;;;1.10;;
77214;SDS011;66210;53.282;9.864;2024-03-17T12:54:25;9.27;;;1.60;;
77214;SDS011;66210;53.282;9.864;2024-03-17T12:56:53;2.83;;;1.13;;
77214;SDS011;66210;53.282;9.864;2024-03-17T12:59:50;4.97;;;1.40;;
77214;SDS011;66210;53.282;9.864;2024-03-17T13:02:40;7.68;;;1.60;;
77214;SDS011;66210;53.282;9.864;2024-03-17T13:05:10;3.92;;;1.52;;
77214;SDS011;66210;53.282;9.864;2024-03-17T13:07:41;6.85;;;1.55;;
77214;SDS011;66210;53.282;9.864;2024-03-17T13:10:07;6.97;;;2.03;;
77214;SDS011;66210;53.282;9.864;2024-03-17T13:12:34;7.38;;;1.65;;
77214;SDS011;66210;53.282;9.864;2024-03-17T13:15:00;7.45;;;1.75;;
77214;SDS011;66210;53.282;9.864;2024-03-17T13:17:26;3.63;;;1.30;;
77214;SDS011;66210;53.282;9.864;2024-03-17T13:19:54;3.10;;;1.10;;
77214;SDS011;66210;53.282;9.864;2024-03-17T13:22:20;5.40;;;1.40;;
77214;SDS011;66210;53.282;9.864;2024-03-17T13:24:46;2.88;;;1.23;;
77214;SDS011;66210;53.282;9.864;2024-03-17T13:27:12;4.72;;;1.90;;
77214;SDS011;66210;53.282;9.864;2024-03-17T13:29:40;4.00;;;1.30;;
77214;SDS011;66210;53.282;9.864;2024-03-17T13:32:09;5.68;;;1.60;;
77214;SDS011;66210;53.282;9.864;2024-03-17T13:34:35;6.78;;;1.50;;
77214;SDS011;66210;53.282;9.864;2024-03-17T13:37:01;6.78;;;1.25;;
77214;SDS011;66210;53.282;9.864;2024-03-17T13:39:31;4.25;;;1.45;;
77214;SDS011;66210;53.282;9.864;2024-03-17T13:41:58;5.20;;;1.60;;
77214;SDS011;66210;53.282;9.864;2024-03-17T13:44:30;5.47;;;1.30;;
77214;SDS011;66210;53.282;9.864;2024-03-17T13:46:59;7.22;;;1.30;;
77214;SDS011;66210;53.282;9.864;2024-03-17T13:49:29;6.10;;;1.13;;
77214;SDS011;66210;53.282;9.864;2024-03-17T13:51:55;9.13;;;1.38;;
77214;SDS011;66210;53.282;9.864;2024-03-17T13:54:20;5.32;;;1.55;;
77214;SDS011;66210;53.282;9.864;2024-03-17T13:56:49;7.00;;;1.40;;
77214;SDS011;66210;53.282;9.864;2024-03-17T13:59:15;3.45;;;1.27;;
77214;SDS011;66210;53.282;9.864;2024-03-17T14:01:44;3.90;;;1.45;;
77214;SDS011;66210;53.282;9.864;2024-03-17T14:04:12;12.00;;;1.88;;
77214;SDS011;66210;53.282;9.864;2024-03-17T14:06:40;7.50;;;1.70;;
77214;SDS011;66210;53.282;9.864;2024-03-17T14:09:07;6.15;;;1.63;;
77214;SDS011;66210;53.282;9.864;2024-03-17T14:11:36;6.50;;;1.17;;
77214;SDS011;66210;53.282;9.864;2024-03-17T14:14:02;8.90;;;1.60;;
77214;SDS011;66210;53.282;9.864;2024-03-17T14:16:31;4.03;;;1.20;;
77214;SDS011;66210;53.282;9.864;2024-03-17T14:19:00;6.78;;;1.67;;
77214;SDS011;66210;53.282;9.864;2024-03-17T14:21:26;6.20;;;1.70;;
77214;SDS011;66210;53.282;9.864;2024-03-17T14:23:53;8.57;;;1.67;;
77214;SDS011;66210;53.282;9.864;2024-03-17T14:26:19;5.55;;;1.50;;
77214;SDS011;66210;53.282;9.864;2024-03-17T14:28:45;6.07;;;1.95;;
77214;SDS011;66210;53.282;9.864;2024-03-17T14:31:11;9.50;;;1.88;;
77214;SDS011;66210;53.282;9.864;2024-03-17T14:33:37;6.50;;;2.25;;
77214;SDS011;66210;53.282;9.864;2024-03-17T14:36:03;7.18;;;2.08;;
77214;SDS011;66210;53.282;9.864;2024-03-17T14:38:29;4.63;;;1.55;;
77214;SDS011;66210;53.282;9.864;2024-03-17T14:40:55;5.60;;;1.60;;
77214;SDS011;66210;53.282;9.864;2024-03-17T14:43:20;6.78;;;2.05;;
77214;SDS011;66210;53.282;9.864;2024-03-17T14:45:46;13.05;;;2.10;;
77214;SDS011;66210;53.282;9.864;2024-03-17T14:48:12;13.00;;;2.50;;
77214;SDS011;66210;53.282;9.864;2024-03-17T14:50:40;10.65;;;1.90;;
77214;SDS011;66210;53.282;9.864;2024-03-17T14:53:06;7.07;;;2.25;;
77214;SDS011;66210;53.282;9.864;2024-03-17T14:55:32;6.07;;;2.10;;
77214;SDS011;66210;53.282;9.864;2024-03-17T14:57:58;4.82;;;1.63;;
77214;SDS011;66210;53.282;9.864;2024-03-17T15:00:27;6.63;;;1.77;;
77214;SDS011;66210;53.282;9.864;2024-03-17T15:02:55;9.95;;;1.60;;
77214;SDS011;66210;53.282;9.864;2024-03-17T15:05:21;7.20;;;1.85;;
77214;SDS011;66210;53.282;9.864;2024-03-17T15:07:48;7.35;;;1.65;;
77214;SDS011;66210;53.282;9.864;2024-03-17T15:10:14;3.75;;;1.70;;
77214;SDS011;66210;53.282;9.864;2024-03-17T15:12:41;5.20;;;1.75;;
77214;SDS011;66210;53.282;9.864;2024-03-17T15:15:07;6.25;;;1.60;;
77214;SDS011;66210;53.282;9.864;2024-03-17T15:17:35;4.50;;;1.35;;
77214;SDS011;66210;53.282;9.864;2024-03-17T15:20:01;6.32;;;1.52;;
77214;SDS011;66210;53.282;9.864;2024-03-17T15:22:27;5.45;;;1.50;;